sensor_id;sensor_type;location;lat;lon;timestamp;P1;durP1;ratioP1;P2;durP2;ratioP2
50205;SDS011;36098;48.390;10.856;2023-07-30T00:01:06;1.60;;;1.38;;
50205;SDS011;36098;48.390;10.856;2023-07-30T00:03:31;1.92;;;1.20;;
50205;SDS011;36098;48.390;10.856;2023-07-30T00:05:57;1.75;;;1.20;;
50205;SDS011;36098;48.390;10.856;2023-07-30T00:08:22;1.88;;;1.25;;
50205;SDS011;36098;48.390;10.856;2023-07-30T00:10:48;3.15;;;1.00;;
50205;SDS011;36098;48.390;10.856;2023-07-30T00:13:14;1.40;;;1.10;;
50205;SDS011;36098;48.390;10.856;2023-07-30T00:15:39;1.50;;;1.08;;
50205;SDS011;36098;48.390;10.856;2023-07-30T00:18:04;1.45;;;1.20;;
50205;SDS011;36098;48.390;10.856;2023-07-30T00:20:29;2.10;;;1.13;;
50205;SDS011;36098;48.390;10.856;2023-07-30T00:22:55;2.35;;;1.20;;
50205;SDS011;36098;48.390;10.856;2023-07-30T00:25:20;1.35;;;1.20;;
50205;SDS011;36098;48.390;10.856;2023-07-30T00:27:45;1.13;;;0.90;;
50205;SDS011;36098;48.390;10.856;2023-07-30T00:30:11;2.05;;;1.20;;
50205;SDS011;36098;48.390;10.856;2023-07-30T00:32:36;1.73;;;1.20;;
50205;SDS011;36098;48.390;10.856;2023-07-30T00:35:05;1.30;;;1.10;;
50205;SDS011;36098;48.390;10.856;2023-07-30T00:37:31;1.58;;;1.20;;
50205;SDS011;36098;48.390;10.856;2023-07-30T00:39:56;1.45;;;1.10;;
50205;SDS011;36098;48.390;10.856;2023-07-30T00:42:21;1.75;;;1.10;;
50205;SDS011;36098;48.390;10.856;2023-07-30T00:44:47;1.40;;;1.10;;
50205;SDS011;36098;48.390;10.856;2023-07-30T00:47:12;1.60;;;1.27;;
50205;SDS011;36098;48.390;10.856;2023-07-30T00:49:38;1.55;;;1.00;;
50205;SDS011;36098;48.390;10.856;2023-07-30T00:52:04;1.65;;;1.20;;
50205;SDS011;36098;48.390;10.856;2023-07-30T00:54:30;1.35;;;1.00;;
50205;SDS011;36098;48.390;10.856;2023-07-30T00:56:55;1.73;;;1.27;;
50205;SDS011;36098;48.390;10.856;2023-07-30T00:59:20;1.50;;;1.20;;
50205;SDS011;36098;48.390;10.856;2023-07-30T01:01:46;1.48;;;1.10;;
50205;SDS011;36098;48.390;10.856;2023-07-30T01:04:13;1.58;;;1.10;;
50205;SDS011;36098;48.390;10.856;2023-07-30T01:06:41;1.15;;;0.98;;
50205;SDS011;36098;48.390;10.856;2023-07-30T01:09:07;1.58;;;1.00;;
50205;SDS011;36098;48.390;10.856;2023-07-30T01:11:32;1.70;;;1.10;;
50205;SDS011;36098;48.390;10.856;2023-07-30T01:13:58;1.70;;;1.10;;
50205;SDS011;36098;48.390;10.856;2023-07-30T01:16:24;1.15;;;1.00;;
50205;SDS011;36098;48.390;10.856;2023-07-30T01:18:50;1.70;;;1.13;;
50205;SDS011;36098;48.390;10.856;2023-07-30T01:21:15;1.48;;;1.08;;
50205;SDS011;36098;48.390;10.856;2023-07-30T01:23:40;2.53;;;1.30;;
50205;SDS011;36098;48.390;10.856;2023-07-30T01:26:10;1.73;;;1.30;;
50205;SDS011;36098;48.390;10.856;2023-07-30T01:28:42;1.00;;;0.82;;
50205;SDS011;36098;48.390;10.856;2023-07-30T01:31:12;1.35;;;1.00;;
50205;SDS011;36098;48.390;10.856;2023-07-30T01:33:40;1.48;;;1.10;;
50205;SDS011;36098;48.390;10.856;2023-07-30T01:36:06;1.33;;;1.10;;
50205;SDS011;36098;48.390;10.856;2023-07-30T01:38:36;1.30;;;0.95;;
50205;SDS011;36098;48.390;10.856;2023-07-30T01:41:03;1.65;;;1.05;;
50205;SDS011;36098;48.390;10.856;2023-07-30T01:43:29;1.25;;;1.10;;
50205;SDS011;36098;48.390;10.856;2023-07-30T01:45:54;1.20;;;1.00;;
50205;SDS011;36098;48.390;10.856;2023-07-30T01:48:19;2.58;;;1.23;;
50205;SDS011;36098;48.390;10.856;2023-07-30T01:50:44;1.60;;;1.10;;
50205;SDS011;36098;48.390;10.856;2023-07-30T01:53:12;1.20;;;0.98;;
50205;SDS011;36098;48.390;10.856;2023-07-30T01:55:37;1.45;;;1.20;;
50205;SDS011;36098;48.390;10.856;2023-07-30T01:58:04;1.35;;;1.25;;
50205;SDS011;36098;48.390;10.856;2023-07-30T02:00:29;1.13;;;1.00;;
50205;SDS011;36098;48.390;10.856;2023-07-30T02:02:55;1.90;;;1.23;;
50205;SDS011;36098;48.390;10.856;2023-07-30T02:05:20;1.88;;;1.20;;
50205;SDS011;36098;48.390;10.856;2023-07-30T02:07:45;1.35;;;0.90;;
50205;SDS011;36098;48.390;10.856;2023-07-30T02:10:10;1.20;;;1.10;;
50205;SDS011;36098;48.390;10.856;2023-07-30T02:12:36;1.73;;;1.00;;
50205;SDS011;36098;48.390;10.856;2023-07-30T02:15:01;1.40;;;1.10;;
50205;SDS011;36098;48.390;10.856;2023-07-30T02:17:26;1.42;;;0.93;;
50205;SDS011;36098;48.390;10.856;2023-07-30T02:19:52;2.13;;;1.40;;
50205;SDS011;36098;48.390;10.856;2023-07-30T02:22:17;1.50;;;1.20;;
50205;SDS011;36098;48.390;10.856;2023-07-30T02:24:42;1.17;;;0.98;;
50205;SDS011;36098;48.390;10.856;2023-07-30T02:27:07;1.70;;;1.10;;
50205;SDS011;36098;48.390;10.856;2023-07-30T02:29:33;1.60;;;1.20;;
50205;SDS011;36098;48.390;10.856;2023-07-30T02:31:58;1.25;;;1.00;;
50205;SDS011;36098;48.390;10.856;2023-07-30T02:34:24;1.13;;;0.98;;
50205;SDS011;36098;48.390;10.856;2023-07-30T02:36:50;1.40;;;1.20;;
50205;SDS011;36098;48.390;10.856;2023-07-30T02:39:15;1.50;;;1.00;;
50205;SDS011;36098;48.390;10.856;2023-07-30T02:41:40;1.40;;;1.10;;
50205;SDS011;36098;48.390;10.856;2023-07-30T02:44:05;1.63;;;1.10;;
50205;SDS011;36098;48.390;10.856;2023-07-30T02:46:31;1.30;;;1.00;;
50205;SDS011;36098;48.390;10.856;2023-07-30T02:48:56;1.05;;;0.93;;
50205;SDS011;36098;48.390;10.856;2023-07-30T02:51:21;1.10;;;1.00;;
50205;SDS011;36098;48.390;10.856;2023-07-30T02:53:46;1.20;;;0.95;;
50205;SDS011;36098;48.390;10.856;2023-07-30T02:56:12;1.30;;;1.00;;
50205;SDS011;36098;48.390;10.856;2023-07-30T02:58:37;1.63;;;1.20;;
50205;SDS011;36098;48.390;10.856;2023-07-30T03:01:08;1.20;;;0.90;;
50205;SDS011;36098;48.390;10.856;2023-07-30T03:03:34;1.42;;;1.10;;
50205;SDS011;36098;48.390;10.856;2023-07-30T03:05:59;1.63;;;1.10;;
50205;SDS011;36098;48.390;10.856;2023-07-30T03:08:25;1.13;;;0.95;;
50205;SDS011;36098;48.390;10.856;2023-07-30T03:10:50;1.27;;;1.17;;
50205;SDS011;36098;48.390;10.856;2023-07-30T03:13:15;1.52;;;1.02;;
50205;SDS011;36098;48.390;10.856;2023-07-30T03:15:40;1.10;;;1.00;;
50205;SDS011;36098;48.390;10.856;2023-07-30T03:18:05;1.17;;;1.00;;
50205;SDS011;36098;48.390;10.856;2023-07-30T03:20:31;1.75;;;1.10;;
50205;SDS011;36098;48.390;10.856;2023-07-30T03:22:56;1.00;;;0.90;;
50205;SDS011;36098;48.390;10.856;2023-07-30T03:25:21;1.88;;;1.10;;
50205;SDS011;36098;48.390;10.856;2023-07-30T03:27:46;2.58;;;0.90;;
50205;SDS011;36098;48.390;10.856;2023-07-30T03:30:12;1.27;;;0.95;;
50205;SDS011;36098;48.390;10.856;2023-07-30T03:32:37;1.58;;;1.17;;
50205;SDS011;36098;48.390;10.856;2023-07-30T03:35:02;1.70;;;1.20;;
50205;SDS011;36098;48.390;10.856;2023-07-30T03:37:28;0.95;;;0.85;;
50205;SDS011;36098;48.390;10.856;2023-07-30T03:39:53;1.10;;;0.90;;
50205;SDS011;36098;48.390;10.856;2023-07-30T03:42:19;1.40;;;1.00;;
50205;SDS011;36098;48.390;10.856;2023-07-30T03:44:44;1.25;;;0.98;;
50205;SDS011;36098;48.390;10.856;2023-07-30T03:47:09;1.40;;;1.02;;
50205;SDS011;36098;48.390;10.856;2023-07-30T03:49:34;1.63;;;1.02;;
50205;SDS011;36098;48.390;10.856;2023-07-30T03:52:00;1.13;;;0.88;;
50205;SDS011;36098;48.390;10.856;2023-07-30T03:54:25;1.77;;;1.00;;
50205;SDS011;36098;48.390;10.856;2023-07-30T03:56:50;1.50;;;1.05;;
50205;SDS011;36098;48.390;10.856;2023-07-30T03:59:15;1.23;;;1.00;;
50205;SDS011;36098;48.390;10.856;2023-07-30T04:01:41;1.23;;;1.00;;
50205;SDS011;36098;48.390;10.856;2023-07-30T04:04:06;1.45;;;1.10;;
50205;SDS011;36098;48.390;10.856;2023-07-30T04:06:31;1.33;;;1.15;;
50205;SDS011;36098;48.390;10.856;2023-07-30T04:08:56;1.23;;;0.95;;
50205;SDS011;36098;48.390;10.856;2023-07-30T04:11:22;1.70;;;1.00;;
50205;SDS011;36098;48.390;10.856;2023-07-30T04:13:47;1.50;;;1.00;;
50205;SDS011;36098;48.390;10.856;2023-07-30T04:16:12;1.17;;;0.98;;
50205;SDS011;36098;48.390;10.856;2023-07-30T04:18:38;1.20;;;0.88;;
50205;SDS011;36098;48.390;10.856;2023-07-30T04:21:03;1.50;;;1.08;;
50205;SDS011;36098;48.390;10.856;2023-07-30T04:23:28;2.42;;;1.10;;
50205;SDS011;36098;48.390;10.856;2023-07-30T04:25:53;1.33;;;0.77;;
50205;SDS011;36098;48.390;10.856;2023-07-30T04:28:19;1.92;;;0.93;;
50205;SDS011;36098;48.390;10.856;2023-07-30T04:30:44;1.13;;;1.00;;
50205;SDS011;36098;48.390;10.856;2023-07-30T04:33:11;2.00;;;1.00;;
50205;SDS011;36098;48.390;10.856;2023-07-30T04:35:37;1.55;;;0.80;;
50205;SDS011;36098;48.390;10.856;2023-07-30T04:38:02;1.27;;;1.10;;
50205;SDS011;36098;48.390;10.856;2023-07-30T04:40:27;1.13;;;1.00;;
50205;SDS011;36098;48.390;10.856;2023-07-30T04:42:53;1.27;;;0.90;;
50205;SDS011;36098;48.390;10.856;2023-07-30T04:45:18;1.00;;;0.80;;
50205;SDS011;36098;48.390;10.856;2023-07-30T04:47:43;1.35;;;1.00;;
50205;SDS011;36098;48.390;10.856;2023-07-30T04:50:08;1.25;;;0.95;;
50205;SDS011;36098;48.390;10.856;2023-07-30T04:52:34;1.48;;;1.00;;
50205;SDS011;36098;48.390;10.856;2023-07-30T04:54:59;1.58;;;1.00;;
50205;SDS011;36098;48.390;10.856;2023-07-30T04:57:24;1.30;;;1.00;;
50205;SDS011;36098;48.390;10.856;2023-07-30T04:59:51;1.13;;;1.00;;
50205;SDS011;36098;48.390;10.856;2023-07-30T05:02:16;1.48;;;1.00;;
50205;SDS011;36098;48.390;10.856;2023-07-30T05:04:41;1.10;;;1.00;;
50205;SDS011;36098;48.390;10.856;2023-07-30T05:07:06;1.10;;;0.80;;
50205;SDS011;36098;48.390;10.856;2023-07-30T05:09:32;1.08;;;0.80;;
50205;SDS011;36098;48.390;10.856;2023-07-30T05:11:57;0.93;;;0.80;;
50205;SDS011;36098;48.390;10.856;2023-07-30T05:14:22;1.30;;;1.10;;
50205;SDS011;36098;48.390;10.856;2023-07-30T05:16:47;1.30;;;0.93;;
50205;SDS011;36098;48.390;10.856;2023-07-30T05:19:13;1.20;;;0.90;;
50205;SDS011;36098;48.390;10.856;2023-07-30T05:21:38;1.98;;;1.27;;
50205;SDS011;36098;48.390;10.856;2023-07-30T05:24:03;1.48;;;1.00;;
50205;SDS011;36098;48.390;10.856;2023-07-30T05:26:29;1.20;;;1.00;;
50205;SDS011;36098;48.390;10.856;2023-07-30T05:28:54;1.35;;;0.90;;
50205;SDS011;36098;48.390;10.856;2023-07-30T05:31:20;1.00;;;0.90;;
50205;SDS011;36098;48.390;10.856;2023-07-30T05:33:45;1.50;;;1.05;;
50205;SDS011;36098;48.390;10.856;2023-07-30T05:36:10;1.20;;;0.90;;
50205;SDS011;36098;48.390;10.856;2023-07-30T05:38:35;1.55;;;1.00;;
50205;SDS011;36098;48.390;10.856;2023-07-30T05:41:01;1.30;;;0.90;;
50205;SDS011;36098;48.390;10.856;2023-07-30T05:43:26;1.73;;;1.10;;
50205;SDS011;36098;48.390;10.856;2023-07-30T05:45:51;1.20;;;1.00;;
50205;SDS011;36098;48.390;10.856;2023-07-30T05:48:16;1.00;;;0.90;;
50205;SDS011;36098;48.390;10.856;2023-07-30T05:50:42;1.30;;;1.10;;
50205;SDS011;36098;48.390;10.856;2023-07-30T05:53:07;1.25;;;1.02;;
50205;SDS011;36098;48.390;10.856;2023-07-30T05:55:32;1.02;;;0.80;;
50205;SDS011;36098;48.390;10.856;2023-07-30T05:57:58;0.93;;;0.80;;
50205;SDS011;36098;48.390;10.856;2023-07-30T06:00:23;1.55;;;1.02;;
50205;SDS011;36098;48.390;10.856;2023-07-30T06:02:49;1.00;;;0.90;;
50205;SDS011;36098;48.390;10.856;2023-07-30T06:05:14;1.20;;;1.00;;
50205;SDS011;36098;48.390;10.856;2023-07-30T06:07:39;1.70;;;1.20;;
50205;SDS011;36098;48.390;10.856;2023-07-30T06:10:05;1.40;;;1.02;;
50205;SDS011;36098;48.390;10.856;2023-07-30T06:12:30;1.38;;;0.90;;
50205;SDS011;36098;48.390;10.856;2023-07-30T06:14:55;1.27;;;0.85;;
50205;SDS011;36098;48.390;10.856;2023-07-30T06:17:21;1.13;;;1.00;;
50205;SDS011;36098;48.390;10.856;2023-07-30T06:19:46;1.35;;;1.00;;
50205;SDS011;36098;48.390;10.856;2023-07-30T06:22:11;1.60;;;1.00;;
50205;SDS011;36098;48.390;10.856;2023-07-30T06:24:37;1.30;;;1.02;;
50205;SDS011;36098;48.390;10.856;2023-07-30T06:27:02;1.33;;;0.93;;
50205;SDS011;36098;48.390;10.856;2023-07-30T06:29:27;1.40;;;1.10;;
50205;SDS011;36098;48.390;10.856;2023-07-30T06:31:52;1.45;;;0.90;;
50205;SDS011;36098;48.390;10.856;2023-07-30T06:34:18;1.33;;;0.90;;
50205;SDS011;36098;48.390;10.856;2023-07-30T06:36:43;1.08;;;0.98;;
50205;SDS011;36098;48.390;10.856;2023-07-30T06:39:08;1.10;;;0.90;;
50205;SDS011;36098;48.390;10.856;2023-07-30T06:41:34;1.25;;;1.00;;
50205;SDS011;36098;48.390;10.856;2023-07-30T06:43:59;1.10;;;0.90;;
50205;SDS011;36098;48.390;10.856;2023-07-30T06:46:24;1.30;;;0.98;;
50205;SDS011;36098;48.390;10.856;2023-07-30T06:48:50;1.00;;;0.90;;
50205;SDS011;36098;48.390;10.856;2023-07-30T06:51:15;2.55;;;1.00;;
50205;SDS011;36098;48.390;10.856;2023-07-30T06:53:44;1.15;;;0.93;;
50205;SDS011;36098;48.390;10.856;2023-07-30T06:56:09;1.30;;;1.17;;
50205;SDS011;36098;48.390;10.856;2023-07-30T06:58:34;1.30;;;1.00;;
50205;SDS011;36098;48.390;10.856;2023-07-30T07:00:59;1.10;;;0.80;;
50205;SDS011;36098;48.390;10.856;2023-07-30T07:03:25;4.13;;;0.88;;
50205;SDS011;36098;48.390;10.856;2023-07-30T07:05:53;2.05;;;1.10;;
50205;SDS011;36098;48.390;10.856;2023-07-30T07:08:22;1.75;;;1.00;;
50205;SDS011;36098;48.390;10.856;2023-07-30T07:10:48;1.38;;;0.95;;
50205;SDS011;36098;48.390;10.856;2023-07-30T07:13:13;1.20;;;0.90;;
50205;SDS011;36098;48.390;10.856;2023-07-30T07:15:42;1.08;;;0.77;;
50205;SDS011;36098;48.390;10.856;2023-07-30T07:18:08;1.10;;;0.90;;
50205;SDS011;36098;48.390;10.856;2023-07-30T07:20:33;1.33;;;1.00;;
50205;SDS011;36098;48.390;10.856;2023-07-30T07:22:59;1.40;;;1.10;;
50205;SDS011;36098;48.390;10.856;2023-07-30T07:25:24;1.25;;;0.88;;
50205;SDS011;36098;48.390;10.856;2023-07-30T07:27:50;1.30;;;0.98;;
50205;SDS011;36098;48.390;10.856;2023-07-30T07:30:15;1.10;;;0.93;;
50205;SDS011;36098;48.390;10.856;2023-07-30T07:32:40;3.63;;;1.30;;
50205;SDS011;36098;48.390;10.856;2023-07-30T07:35:06;1.65;;;1.10;;
50205;SDS011;36098;48.390;10.856;2023-07-30T07:37:32;3.72;;;1.50;;
50205;SDS011;36098;48.390;10.856;2023-07-30T07:39:58;2.35;;;1.30;;
50205;SDS011;36098;48.390;10.856;2023-07-30T07:42:23;2.83;;;1.20;;
50205;SDS011;36098;48.390;10.856;2023-07-30T07:44:49;5.10;;;1.48;;
50205;SDS011;36098;48.390;10.856;2023-07-30T07:47:14;1.60;;;1.30;;
50205;SDS011;36098;48.390;10.856;2023-07-30T07:49:40;1.30;;;1.20;;
50205;SDS011;36098;48.390;10.856;2023-07-30T07:52:05;1.95;;;1.40;;
50205;SDS011;36098;48.390;10.856;2023-07-30T07:54:31;2.20;;;1.40;;
50205;SDS011;36098;48.390;10.856;2023-07-30T07:56:57;3.13;;;1.38;;
50205;SDS011;36098;48.390;10.856;2023-07-30T07:59:22;2.65;;;1.30;;
50205;SDS011;36098;48.390;10.856;2023-07-30T08:01:48;1.95;;;1.40;;
50205;SDS011;36098;48.390;10.856;2023-07-30T08:04:14;3.03;;;1.30;;
50205;SDS011;36098;48.390;10.856;2023-07-30T08:06:40;2.38;;;1.45;;
50205;SDS011;36098;48.390;10.856;2023-07-30T08:09:05;1.73;;;1.35;;
50205;SDS011;36098;48.390;10.856;2023-07-30T08:11:31;2.22;;;1.40;;
50205;SDS011;36098;48.390;10.856;2023-07-30T08:13:56;2.97;;;1.58;;
50205;SDS011;36098;48.390;10.856;2023-07-30T08:16:22;1.55;;;1.40;;
50205;SDS011;36098;48.390;10.856;2023-07-30T08:18:47;1.50;;;1.20;;
50205;SDS011;36098;48.390;10.856;2023-07-30T08:21:13;2.15;;;1.45;;
50205;SDS011;36098;48.390;10.856;2023-07-30T08:23:38;1.88;;;1.20;;
50205;SDS011;36098;48.390;10.856;2023-07-30T08:26:03;2.80;;;1.45;;
50205;SDS011;36098;48.390;10.856;2023-07-30T08:28:29;1.67;;;1.20;;
50205;SDS011;36098;48.390;10.856;2023-07-30T08:30:59;2.35;;;1.30;;
50205;SDS011;36098;48.390;10.856;2023-07-30T08:35:56;1.92;;;1.27;;
50205;SDS011;36098;48.390;10.856;2023-07-30T08:38:22;3.05;;;1.55;;
50205;SDS011;36098;48.390;10.856;2023-07-30T08:40:48;2.50;;;1.48;;
50205;SDS011;36098;48.390;10.856;2023-07-30T08:43:13;3.10;;;1.65;;
50205;SDS011;36098;48.390;10.856;2023-07-30T08:45:39;2.03;;;1.40;;
50205;SDS011;36098;48.390;10.856;2023-07-30T08:48:04;3.70;;;1.58;;
50205;SDS011;36098;48.390;10.856;2023-07-30T08:50:30;2.95;;;1.38;;
50205;SDS011;36098;48.390;10.856;2023-07-30T08:52:55;1.88;;;1.38;;
50205;SDS011;36098;48.390;10.856;2023-07-30T08:55:24;3.25;;;1.38;;
50205;SDS011;36098;48.390;10.856;2023-07-30T08:57:51;3.50;;;1.40;;
50205;SDS011;36098;48.390;10.856;2023-07-30T09:00:17;1.85;;;1.33;;
50205;SDS011;36098;48.390;10.856;2023-07-30T09:02:47;2.33;;;1.45;;
50205;SDS011;36098;48.390;10.856;2023-07-30T09:05:14;4.45;;;1.60;;
50205;SDS011;36098;48.390;10.856;2023-07-30T09:07:40;4.40;;;1.20;;
50205;SDS011;36098;48.390;10.856;2023-07-30T09:10:06;2.15;;;1.40;;
50205;SDS011;36098;48.390;10.856;2023-07-30T09:12:32;2.42;;;1.60;;
50205;SDS011;36098;48.390;10.856;2023-07-30T09:14:59;4.70;;;1.55;;
50205;SDS011;36098;48.390;10.856;2023-07-30T09:17:25;3.03;;;1.58;;
50205;SDS011;36098;48.390;10.856;2023-07-30T09:19:50;2.05;;;1.40;;
50205;SDS011;36098;48.390;10.856;2023-07-30T09:22:26;2.60;;;1.27;;
50205;SDS011;36098;48.390;10.856;2023-07-30T09:24:55;2.17;;;1.23;;
50205;SDS011;36098;48.390;10.856;2023-07-30T09:27:22;1.88;;;1.33;;
50205;SDS011;36098;48.390;10.856;2023-07-30T09:29:53;2.55;;;1.52;;
50205;SDS011;36098;48.390;10.856;2023-07-30T09:32:26;1.75;;;1.35;;
50205;SDS011;36098;48.390;10.856;2023-07-30T09:34:52;1.75;;;1.33;;
50205;SDS011;36098;48.390;10.856;2023-07-30T09:37:17;3.10;;;1.25;;
50205;SDS011;36098;48.390;10.856;2023-07-30T09:39:43;2.10;;;1.30;;
50205;SDS011;36098;48.390;10.856;2023-07-30T09:42:08;1.92;;;1.52;;
50205;SDS011;36098;48.390;10.856;2023-07-30T09:44:34;1.98;;;1.20;;
50205;SDS011;36098;48.390;10.856;2023-07-30T09:47:02;1.55;;;1.30;;
50205;SDS011;36098;48.390;10.856;2023-07-30T09:49:30;1.70;;;1.25;;
50205;SDS011;36098;48.390;10.856;2023-07-30T09:51:56;2.42;;;1.45;;
50205;SDS011;36098;48.390;10.856;2023-07-30T09:54:23;2.33;;;1.27;;
50205;SDS011;36098;48.390;10.856;2023-07-30T09:56:48;1.33;;;1.20;;
50205;SDS011;36098;48.390;10.856;2023-07-30T09:59:13;1.70;;;1.25;;
50205;SDS011;36098;48.390;10.856;2023-07-30T10:01:48;2.13;;;1.30;;
50205;SDS011;36098;48.390;10.856;2023-07-30T10:04:14;2.25;;;1.23;;
50205;SDS011;36098;48.390;10.856;2023-07-30T10:06:41;3.03;;;1.48;;
50205;SDS011;36098;48.390;10.856;2023-07-30T10:09:11;2.35;;;1.30;;
50205;SDS011;36098;48.390;10.856;2023-07-30T10:11:39;2.00;;;1.25;;
50205;SDS011;36098;48.390;10.856;2023-07-30T10:14:06;1.75;;;1.23;;
50205;SDS011;36098;48.390;10.856;2023-07-30T10:16:32;1.80;;;1.20;;
50205;SDS011;36098;48.390;10.856;2023-07-30T10:18:57;1.98;;;1.20;;
50205;SDS011;36098;48.390;10.856;2023-07-30T10:21:24;1.40;;;1.10;;
50205;SDS011;36098;48.390;10.856;2023-07-30T10:26:33;2.40;;;1.20;;
50205;SDS011;36098;48.390;10.856;2023-07-30T10:31:41;4.63;;;1.70;;
50205;SDS011;36098;48.390;10.856;2023-07-30T10:34:08;2.20;;;1.40;;
50205;SDS011;36098;48.390;10.856;2023-07-30T10:36:41;2.03;;;1.40;;
50205;SDS011;36098;48.390;10.856;2023-07-30T10:39:19;2.53;;;1.40;;
50205;SDS011;36098;48.390;10.856;2023-07-30T10:41:49;3.15;;;1.17;;
50205;SDS011;36098;48.390;10.856;2023-07-30T10:46:47;1.73;;;1.30;;
50205;SDS011;36098;48.390;10.856;2023-07-30T10:49:12;2.58;;;1.30;;
50205;SDS011;36098;48.390;10.856;2023-07-30T10:51:38;2.88;;;1.27;;
50205;SDS011;36098;48.390;10.856;2023-07-30T10:54:05;1.38;;;1.20;;
50205;SDS011;36098;48.390;10.856;2023-07-30T10:56:31;2.50;;;1.30;;
50205;SDS011;36098;48.390;10.856;2023-07-30T10:58:56;1.40;;;1.10;;
50205;SDS011;36098;48.390;10.856;2023-07-30T11:01:25;1.60;;;1.10;;
50205;SDS011;36098;48.390;10.856;2023-07-30T11:03:51;1.58;;;1.00;;
50205;SDS011;36098;48.390;10.856;2023-07-30T11:06:21;1.40;;;1.05;;
50205;SDS011;36098;48.390;10.856;2023-07-30T11:08:47;1.30;;;1.10;;
50205;SDS011;36098;48.390;10.856;2023-07-30T11:11:13;1.67;;;1.00;;
50205;SDS011;36098;48.390;10.856;2023-07-30T11:13:42;1.75;;;1.10;;
50205;SDS011;36098;48.390;10.856;2023-07-30T11:16:09;2.25;;;1.20;;
50205;SDS011;36098;48.390;10.856;2023-07-30T11:18:38;3.05;;;1.65;;
50205;SDS011;36098;48.390;10.856;2023-07-30T11:21:08;3.38;;;1.25;;
50205;SDS011;36098;48.390;10.856;2023-07-30T11:23:35;2.63;;;1.48;;
50205;SDS011;36098;48.390;10.856;2023-07-30T11:26:02;2.03;;;1.27;;
50205;SDS011;36098;48.390;10.856;2023-07-30T11:30:55;5.13;;;1.35;;
50205;SDS011;36098;48.390;10.856;2023-07-30T11:33:23;2.92;;;1.52;;
50205;SDS011;36098;48.390;10.856;2023-07-30T11:35:49;3.28;;;1.30;;
50205;SDS011;36098;48.390;10.856;2023-07-30T11:38:14;4.35;;;1.25;;
50205;SDS011;36098;48.390;10.856;2023-07-30T11:40:39;3.40;;;1.40;;
50205;SDS011;36098;48.390;10.856;2023-07-30T11:43:05;7.80;;;1.45;;
50205;SDS011;36098;48.390;10.856;2023-07-30T11:45:30;1.83;;;1.30;;
50205;SDS011;36098;48.390;10.856;2023-07-30T11:48:06;4.53;;;1.35;;
50205;SDS011;36098;48.390;10.856;2023-07-30T11:50:49;2.63;;;1.30;;
50205;SDS011;36098;48.390;10.856;2023-07-30T11:53:16;2.40;;;1.27;;
50205;SDS011;36098;48.390;10.856;2023-07-30T11:55:42;5.78;;;1.40;;
50205;SDS011;36098;48.390;10.856;2023-07-30T11:58:09;4.50;;;2.55;;
50205;SDS011;36098;48.390;10.856;2023-07-30T12:00:38;3.78;;;1.55;;
50205;SDS011;36098;48.390;10.856;2023-07-30T12:03:05;2.13;;;1.40;;
50205;SDS011;36098;48.390;10.856;2023-07-30T12:05:35;3.28;;;1.25;;
50205;SDS011;36098;48.390;10.856;2023-07-30T12:08:02;2.15;;;1.08;;
50205;SDS011;36098;48.390;10.856;2023-07-30T12:10:50;3.03;;;1.60;;
50205;SDS011;36098;48.390;10.856;2023-07-30T12:13:17;1.48;;;1.08;;
50205;SDS011;36098;48.390;10.856;2023-07-30T12:15:52;1.30;;;1.08;;
50205;SDS011;36098;48.390;10.856;2023-07-30T12:18:19;1.83;;;1.40;;
50205;SDS011;36098;48.390;10.856;2023-07-30T12:20:45;2.08;;;1.30;;
50205;SDS011;36098;48.390;10.856;2023-07-30T12:23:11;2.45;;;1.30;;
50205;SDS011;36098;48.390;10.856;2023-07-30T12:25:37;1.90;;;1.40;;
50205;SDS011;36098;48.390;10.856;2023-07-30T12:28:03;1.95;;;1.30;;
50205;SDS011;36098;48.390;10.856;2023-07-30T12:30:28;1.70;;;1.30;;
50205;SDS011;36098;48.390;10.856;2023-07-30T12:32:53;4.38;;;1.50;;
50205;SDS011;36098;48.390;10.856;2023-07-30T12:35:19;2.72;;;1.50;;
50205;SDS011;36098;48.390;10.856;2023-07-30T12:37:44;2.42;;;1.33;;
50205;SDS011;36098;48.390;10.856;2023-07-30T12:40:10;5.63;;;1.33;;
50205;SDS011;36098;48.390;10.856;2023-07-30T12:42:35;5.07;;;1.60;;
50205;SDS011;36098;48.390;10.856;2023-07-30T12:45:01;3.30;;;1.55;;
50205;SDS011;36098;48.390;10.856;2023-07-30T12:47:26;2.97;;;1.50;;
50205;SDS011;36098;48.390;10.856;2023-07-30T12:49:51;5.40;;;1.52;;
50205;SDS011;36098;48.390;10.856;2023-07-30T12:52:16;9.85;;;1.33;;
50205;SDS011;36098;48.390;10.856;2023-07-30T12:54:42;3.78;;;1.48;;
50205;SDS011;36098;48.390;10.856;2023-07-30T12:57:07;4.72;;;1.38;;
50205;SDS011;36098;48.390;10.856;2023-07-30T12:59:32;2.75;;;1.35;;
50205;SDS011;36098;48.390;10.856;2023-07-30T13:01:58;4.22;;;1.50;;
50205;SDS011;36098;48.390;10.856;2023-07-30T13:04:24;1.98;;;1.27;;
50205;SDS011;36098;48.390;10.856;2023-07-30T13:06:52;3.30;;;1.50;;
50205;SDS011;36098;48.390;10.856;2023-07-30T13:09:17;2.10;;;1.30;;
50205;SDS011;36098;48.390;10.856;2023-07-30T13:11:43;4.22;;;1.20;;
50205;SDS011;36098;48.390;10.856;2023-07-30T13:14:08;4.30;;;1.30;;
50205;SDS011;36098;48.390;10.856;2023-07-30T13:16:33;4.25;;;1.50;;
50205;SDS011;36098;48.390;10.856;2023-07-30T13:18:59;3.00;;;1.17;;
50205;SDS011;36098;48.390;10.856;2023-07-30T13:21:24;4.13;;;1.30;;
50205;SDS011;36098;48.390;10.856;2023-07-30T13:23:49;2.60;;;1.42;;
50205;SDS011;36098;48.390;10.856;2023-07-30T13:26:15;4.88;;;1.50;;
50205;SDS011;36098;48.390;10.856;2023-07-30T13:28:40;4.30;;;1.60;;
50205;SDS011;36098;48.390;10.856;2023-07-30T13:31:05;2.53;;;1.20;;
50205;SDS011;36098;48.390;10.856;2023-07-30T13:33:30;3.55;;;1.10;;
50205;SDS011;36098;48.390;10.856;2023-07-30T13:35:56;4.18;;;1.58;;
50205;SDS011;36098;48.390;10.856;2023-07-30T13:38:21;2.03;;;1.30;;
50205;SDS011;36098;48.390;10.856;2023-07-30T13:40:47;2.85;;;1.30;;
50205;SDS011;36098;48.390;10.856;2023-07-30T13:43:12;2.33;;;1.10;;
50205;SDS011;36098;48.390;10.856;2023-07-30T13:45:37;1.33;;;1.10;;
50205;SDS011;36098;48.390;10.856;2023-07-30T13:48:03;6.05;;;1.30;;
50205;SDS011;36098;48.390;10.856;2023-07-30T13:50:28;2.50;;;1.65;;
50205;SDS011;36098;48.390;10.856;2023-07-30T13:52:53;2.25;;;1.35;;
50205;SDS011;36098;48.390;10.856;2023-07-30T13:55:19;1.90;;;1.15;;
50205;SDS011;36098;48.390;10.856;2023-07-30T13:57:45;1.40;;;1.00;;
50205;SDS011;36098;48.390;10.856;2023-07-30T14:00:10;1.50;;;1.10;;
50205;SDS011;36098;48.390;10.856;2023-07-30T14:02:36;1.40;;;1.08;;
50205;SDS011;36098;48.390;10.856;2023-07-30T14:05:01;3.22;;;1.27;;
50205;SDS011;36098;48.390;10.856;2023-07-30T14:07:27;3.67;;;1.10;;
50205;SDS011;36098;48.390;10.856;2023-07-30T14:09:53;1.95;;;1.08;;
50205;SDS011;36098;48.390;10.856;2023-07-30T14:12:18;3.05;;;1.30;;
50205;SDS011;36098;48.390;10.856;2023-07-30T14:14:43;2.60;;;1.20;;
50205;SDS011;36098;48.390;10.856;2023-07-30T14:17:09;3.60;;;1.38;;
50205;SDS011;36098;48.390;10.856;2023-07-30T14:19:34;2.33;;;1.20;;
50205;SDS011;36098;48.390;10.856;2023-07-30T14:21:59;4.00;;;1.50;;
50205;SDS011;36098;48.390;10.856;2023-07-30T14:24:25;1.92;;;1.15;;
50205;SDS011;36098;48.390;10.856;2023-07-30T14:26:50;1.70;;;1.10;;
50205;SDS011;36098;48.390;10.856;2023-07-30T14:29:16;3.55;;;1.35;;
50205;SDS011;36098;48.390;10.856;2023-07-30T14:31:42;2.95;;;1.20;;
50205;SDS011;36098;48.390;10.856;2023-07-30T14:34:07;2.50;;;1.05;;
50205;SDS011;36098;48.390;10.856;2023-07-30T14:36:32;2.60;;;1.38;;
50205;SDS011;36098;48.390;10.856;2023-07-30T14:38:57;3.33;;;1.20;;